createdAt,value
2022-10-22T00:01:10.478Z,20.70
2022-10-22T00:06:02.753Z,20.57
2022-10-22T00:10:55.019Z,24.67
2022-10-22T00:15:47.180Z,22.93
2022-10-22T00:20:39.855Z,25.27
2022-10-22T00:25:36.548Z,23.97
2022-10-22T00:30:28.839Z,25.37
2022-10-22T00:35:22.294Z,26.27
2022-10-22T00:40:14.659Z,25.80
2022-10-22T00:45:09.641Z,24.67
2022-10-22T00:55:01.795Z,26.50
2022-10-22T00:59:55.874Z,26.97
2022-10-22T01:04:48.197Z,27.20
2022-10-22T01:09:46.917Z,28.90
2022-10-22T01:14:45.154Z,28.63
2022-10-22T01:20:06.545Z,28.10
2022-10-22T01:25:11.213Z,29.27
2022-10-22T01:30:07.537Z,28.73
2022-10-22T01:35:04.434Z,28.97
2022-10-22T01:40:01.462Z,28.50
2022-10-22T01:44:53.768Z,28.97
2022-10-22T01:50:14.926Z,29.37
2022-10-22T01:55:37.542Z,28.07
2022-10-22T02:00:30.132Z,30.10
2022-10-22T02:05:28.706Z,30.03
2022-10-22T02:10:22.434Z,29.13
2022-10-22T02:15:19.662Z,27.67
2022-10-22T02:20:26.242Z,28.47
2022-10-22T02:25:20.460Z,26.97
2022-10-22T02:30:19.256Z,27.73
2022-10-22T02:35:17.390Z,26.97
2022-10-22T02:40:10.341Z,27.37
2022-10-22T02:45:02.535Z,25.97
2022-10-22T02:49:54.750Z,26.40
2022-10-22T02:54:47.003Z,26.53
2022-10-22T02:59:39.213Z,26.17
2022-10-22T03:04:32.319Z,25.87
2022-10-22T03:09:25.002Z,27.83
2022-10-22T03:14:18.871Z,27.53
2022-10-22T03:19:11.911Z,27.43
2022-10-22T03:24:09.855Z,27.07
2022-10-22T03:29:02.733Z,26.50
2022-10-22T03:33:57.706Z,26.90
2022-10-22T03:38:50.299Z,26.03
2022-10-22T03:43:42.698Z,26.97
2022-10-22T03:48:34.955Z,25.93
2022-10-22T03:53:27.106Z,27.23
2022-10-22T03:58:20.715Z,26.87
2022-10-22T04:03:12.893Z,27.53
2022-10-22T04:08:05.305Z,26.20
2022-10-22T04:12:57.554Z,26.40
2022-10-22T04:17:49.769Z,28.93
2022-10-22T04:22:43.525Z,29.27
2022-10-22T04:27:35.988Z,27.70
2022-10-22T04:32:28.904Z,27.10
2022-10-22T04:37:21.355Z,27.93
2022-10-22T04:42:13.902Z,28.23
2022-10-22T04:47:07.610Z,27.80
2022-10-22T04:51:59.939Z,27.37
2022-10-22T04:56:52.375Z,25.47
2022-10-22T05:01:44.949Z,25.70
2022-10-22T05:06:37.874Z,24.77
2022-10-22T05:11:34.012Z,25.93
2022-10-22T05:16:27.848Z,25.73
2022-10-22T05:21:21.983Z,26.60
2022-10-22T05:26:17.211Z,24.37
2022-10-22T05:31:12.290Z,26.03
2022-10-22T05:36:06.868Z,25.03
2022-10-22T05:41:11.870Z,25.33
2022-10-22T05:51:13.693Z,24.30
2022-10-22T05:56:11.534Z,24.00
2022-10-22T06:01:14.416Z,25.00
2022-10-22T06:06:22.200Z,23.43
2022-10-22T06:11:14.578Z,23.90
2022-10-22T06:16:07.073Z,24.47
2022-10-22T06:21:07.861Z,22.47
2022-10-22T06:26:03.959Z,22.90
2022-10-22T06:30:58.938Z,22.20
2022-10-22T06:35:51.182Z,22.17
2022-10-22T06:40:44.993Z,22.10
2022-10-22T06:45:39.675Z,21.80
2022-10-22T06:50:32.027Z,22.93
2022-10-22T06:55:26.636Z,22.03
2022-10-22T07:00:19.107Z,21.97
2022-10-22T07:05:11.371Z,21.10
2022-10-22T07:10:03.826Z,21.87
2022-10-22T07:14:56.109Z,22.17
2022-10-22T07:19:51.126Z,22.10
2022-10-22T07:24:44.242Z,22.97
2022-10-22T07:29:36.776Z,21.13
2022-10-22T07:34:29.015Z,21.73
2022-10-22T07:39:21.353Z,20.37
2022-10-22T07:44:13.596Z,22.57
2022-10-22T07:49:06.266Z,20.50
2022-10-22T07:54:01.503Z,21.43
2022-10-22T07:58:53.919Z,20.63
2022-10-22T08:03:46.210Z,22.60
2022-10-22T08:08:39.189Z,21.97
2022-10-22T08:13:32.015Z,22.50
2022-10-22T08:18:24.342Z,21.93
2022-10-22T08:23:16.801Z,22.73
2022-10-22T08:28:09.026Z,21.63
2022-10-22T08:33:01.531Z,21.50
2022-10-22T08:37:53.846Z,20.80
2022-10-22T08:43:21.978Z,20.27
2022-10-22T08:48:26.920Z,16.13
2022-10-22T08:53:23.098Z,17.53
2022-10-22T08:58:49.812Z,14.97
2022-10-22T09:03:55.282Z,14.83
2022-10-22T09:08:48.737Z,16.77
2022-10-22T09:13:43.515Z,14.60
2022-10-22T09:18:50.682Z,13.67
2022-10-22T09:23:54.146Z,13.20
2022-10-22T09:28:51.223Z,12.70
2022-10-22T09:33:48.001Z,10.47
2022-10-22T09:38:46.533Z,9.23
2022-10-22T09:43:38.798Z,9.83
2022-10-22T09:48:39.453Z,8.97
2022-10-22T09:53:37.491Z,8.37
2022-10-22T09:58:46.148Z,7.87
2022-10-22T10:03:41.149Z,7.00
2022-10-22T10:08:33.733Z,7.27
2022-10-22T10:13:50.597Z,7.13
2022-10-22T10:19:16.182Z,7.00
2022-10-22T10:24:21.824Z,6.23
2022-10-22T10:35:20.803Z,6.53
2022-10-22T10:40:46.575Z,5.60
2022-10-22T10:45:56.527Z,5.47
2022-10-22T10:51:07.589Z,4.80
2022-10-22T10:56:44.063Z,4.87
2022-10-22T11:01:39.353Z,4.60
2022-10-22T11:06:34.490Z,4.10
2022-10-22T11:11:54.120Z,4.10
2022-10-22T11:17:04.516Z,3.40
2022-10-22T11:22:05.876Z,3.30
2022-10-22T11:27:30.601Z,2.00
2022-10-22T11:32:23.912Z,2.50
2022-10-22T11:37:17.826Z,4.23
2022-10-22T11:42:32.113Z,4.87
2022-10-22T11:47:28.214Z,5.00
2022-10-22T11:52:28.414Z,3.73
2022-10-22T11:57:36.527Z,4.83
2022-10-22T12:02:28.806Z,4.37
2022-10-22T12:07:55.168Z,5.90
2022-10-22T12:13:20.007Z,6.17
2022-10-22T12:23:12.916Z,5.73
2022-10-22T12:28:05.657Z,5.40
2022-10-22T12:33:03.185Z,5.27
2022-10-22T12:38:11.223Z,5.63
2022-10-22T12:43:13.177Z,5.50
2022-10-22T12:48:28.337Z,5.67
2022-10-22T12:53:33.052Z,4.90
2022-10-22T12:58:34.295Z,3.83
2022-10-22T13:03:30.957Z,0.80
2022-10-22T13:08:29.367Z,0.70
2022-10-22T13:13:31.787Z,0.70
2022-10-22T13:18:26.172Z,0.60
2022-10-22T13:23:22.352Z,0.70
2022-10-22T13:28:22.543Z,0.93
2022-10-22T13:33:30.628Z,0.70
2022-10-22T13:38:29.484Z,1.00
2022-10-22T13:43:25.512Z,0.70
2022-10-22T13:48:23.302Z,0.90
2022-10-22T13:53:24.138Z,1.00
2022-10-22T13:58:23.680Z,1.03
2022-10-22T14:03:19.042Z,1.00
2022-10-22T14:08:20.505Z,0.90
2022-10-22T14:13:16.331Z,0.90
2022-10-22T14:18:15.739Z,0.60
2022-10-22T14:23:23.424Z,0.80
2022-10-22T14:28:15.897Z,0.60
2022-10-22T14:33:32.915Z,0.50
2022-10-22T14:38:26.514Z,0.53
2022-10-22T14:43:28.412Z,0.50
2022-10-22T14:48:24.177Z,0.50
2022-10-22T14:53:17.022Z,0.77
2022-10-22T14:58:09.725Z,0.40
2022-10-22T15:03:04.327Z,0.60
2022-10-22T15:07:59.207Z,0.73
2022-10-22T15:12:53.585Z,2.60
2022-10-22T15:17:48.892Z,1.10
2022-10-22T15:22:41.951Z,0.97
2022-10-22T15:27:38.201Z,1.00
2022-10-22T15:32:34.299Z,1.40
2022-10-22T15:37:27.303Z,1.27
2022-10-22T15:42:24.022Z,1.43
2022-10-22T15:47:16.440Z,2.33
2022-10-22T15:52:18.808Z,2.37
2022-10-22T15:57:11.503Z,2.00
2022-10-22T16:02:09.054Z,2.00
2022-10-22T16:07:07.316Z,1.43
2022-10-22T16:12:01.416Z,2.50
2022-10-22T16:16:57.506Z,2.27
2022-10-22T16:21:54.515Z,2.20
2022-10-22T16:26:47.687Z,3.07
2022-10-22T16:31:41.385Z,2.60
2022-10-22T16:36:34.135Z,2.90
2022-10-22T16:41:35.212Z,2.90
2022-10-22T16:46:27.595Z,3.03
2022-10-22T16:51:24.303Z,2.73
2022-10-22T16:56:20.028Z,2.70
2022-10-22T17:01:14.913Z,3.00
2022-10-22T17:06:11.979Z,2.90
2022-10-22T17:11:17.451Z,3.70
2022-10-22T17:16:13.059Z,6.70
2022-10-22T17:21:10.200Z,7.70
2022-10-22T17:26:07.470Z,10.33
2022-10-22T17:31:09.307Z,11.43
2022-10-22T17:36:02.921Z,16.77
2022-10-22T17:40:59.178Z,16.97
2022-10-22T17:45:55.238Z,17.57
2022-10-22T17:50:55.767Z,16.53
2022-10-22T17:55:58.611Z,18.43
2022-10-22T18:01:06.113Z,21.23
2022-10-22T18:06:16.956Z,20.97
2022-10-22T18:11:42.230Z,18.53
2022-10-22T18:16:42.222Z,19.00
2022-10-22T18:21:40.507Z,19.27
2022-10-22T18:26:42.072Z,21.63
2022-10-22T18:31:42.012Z,20.30
2022-10-22T18:36:34.252Z,18.93
2022-10-22T18:41:28.747Z,17.70
2022-10-22T18:46:29.926Z,22.37
2022-10-22T18:51:38.073Z,17.97
2022-10-22T18:56:31.509Z,17.03
2022-10-22T19:01:27.993Z,17.27
2022-10-22T19:06:35.905Z,15.77
2022-10-22T19:11:42.513Z,16.30
2022-10-22T19:16:37.792Z,16.20
2022-10-22T19:21:45.855Z,17.67
2022-10-22T19:26:45.730Z,30.17
2022-10-22T19:31:47.162Z,23.23
2022-10-22T19:36:42.655Z,23.93
2022-10-22T19:41:44.650Z,25.10
2022-10-22T19:46:37.349Z,24.83
2022-10-22T19:51:39.012Z,21.57
2022-10-22T19:56:38.628Z,23.33
2022-10-22T21:53:57.938Z,12.00
2022-10-22T21:58:52.814Z,11.17
2022-10-22T22:03:49.221Z,12.10
2022-10-22T22:08:42.369Z,13.10
2022-10-22T22:13:35.057Z,14.07
2022-10-22T22:18:27.337Z,13.30
2022-10-22T22:23:20.748Z,12.50
2022-10-22T22:28:15.674Z,14.00
2022-10-22T22:33:07.899Z,13.87
2022-10-22T22:38:00.095Z,14.80
2022-10-22T22:42:55.169Z,14.80
2022-10-22T22:47:47.510Z,14.50
2022-10-22T22:52:40.293Z,13.77
2022-10-22T22:57:32.760Z,12.97
2022-10-22T23:02:25.023Z,12.57
2022-10-22T23:07:17.178Z,12.20
2022-10-22T23:12:09.661Z,13.77
2022-10-22T23:17:01.867Z,11.57
2022-10-22T23:21:55.814Z,13.43
2022-10-22T23:26:49.889Z,12.80
2022-10-22T23:31:43.397Z,11.97
2022-10-22T23:36:37.302Z,11.97
2022-10-22T23:41:29.457Z,11.23
2022-10-22T23:46:23.947Z,9.60
2022-10-22T23:51:17.267Z,10.37
2022-10-22T23:56:18.430Z,10.17
